createdAt,value
2023-02-16T00:00:30.988Z,0.37
2023-02-16T00:02:58.257Z,0.35
2023-02-16T00:05:29.164Z,0.34
2023-02-16T00:07:57.640Z,0.33
2023-02-16T00:10:28.169Z,0.37
2023-02-16T00:13:13.605Z,0.38
2023-02-16T00:15:41.246Z,0.41
2023-02-16T00:18:21.004Z,0.41
2023-02-16T00:20:49.614Z,0.43
2023-02-16T00:23:16.896Z,0.47
2023-02-16T00:25:43.801Z,0.51
2023-02-16T00:28:18.583Z,0.47
2023-02-16T00:30:46.295Z,0.45
2023-02-16T00:33:17.593Z,0.47
2023-02-16T00:35:45.249Z,0.45
2023-02-16T00:38:13.312Z,0.46
2023-02-16T00:40:42.123Z,0.41
2023-02-16T00:43:28.441Z,0.40
2023-02-16T00:45:56.966Z,0.34
2023-02-16T00:48:25.143Z,0.29
2023-02-16T00:50:53.679Z,0.26
2023-02-16T00:53:20.856Z,0.20
2023-02-16T00:55:48.057Z,0.17
2023-02-16T00:58:24.897Z,0.10
2023-02-16T01:00:56.336Z,0.08
2023-02-16T01:03:27.213Z,0.06
2023-02-16T01:06:15.040Z,0.07
2023-02-16T01:09:01.279Z,0.02
2023-02-16T01:11:29.818Z,-0.04
2023-02-16T01:13:58.110Z,-0.05
2023-02-16T01:16:33.250Z,-0.06
2023-02-16T01:19:00.247Z,-0.11
2023-02-16T01:21:27.431Z,-0.11
2023-02-16T01:23:54.397Z,-0.14
2023-02-16T01:26:21.952Z,-0.17
2023-02-16T01:28:49.197Z,-0.17
2023-02-16T01:31:17.817Z,-0.20
2023-02-16T01:33:45.009Z,-0.22
2023-02-16T01:36:27.621Z,-0.27
2023-02-16T01:38:54.562Z,-0.27
2023-02-16T01:41:51.621Z,-0.28
2023-02-16T01:44:24.709Z,-0.32
2023-02-16T01:47:33.946Z,-0.39
2023-02-16T01:50:16.207Z,-0.42
2023-02-16T01:52:50.640Z,-0.43
2023-02-16T01:55:26.195Z,-0.44
2023-02-16T01:58:48.738Z,-0.44
2023-02-16T02:01:40.100Z,-0.45
2023-02-16T02:05:19.116Z,-0.40
2023-02-16T02:07:53.334Z,-0.38
2023-02-16T02:10:32.020Z,-0.32
2023-02-16T02:13:20.506Z,-0.30
2023-02-16T02:15:48.154Z,-0.27
2023-02-16T02:18:15.466Z,-0.23
2023-02-16T02:21:16.435Z,-0.18
2023-02-16T02:24:03.961Z,-0.22
2023-02-16T02:27:32.902Z,-0.15
2023-02-16T02:30:37.739Z,-0.15
2023-02-16T02:33:42.076Z,-0.15
2023-02-16T02:36:46.032Z,-0.19
2023-02-16T02:39:43.617Z,-0.19
2023-02-16T02:42:19.987Z,-0.19
2023-02-16T02:45:14.299Z,-0.15
2023-02-16T02:47:47.566Z,-0.15
2023-02-16T02:51:06.442Z,-0.14
2023-02-16T02:53:40.213Z,-0.20
2023-02-16T02:56:28.901Z,-0.21
2023-02-16T02:59:23.405Z,-0.22
2023-02-16T03:01:56.685Z,-0.25
2023-02-16T03:04:28.844Z,-0.25
2023-02-16T03:06:58.700Z,-0.30
2023-02-16T03:09:26.147Z,-0.32
2023-02-16T03:12:13.378Z,-0.37
2023-02-16T03:14:54.750Z,-0.42
2023-02-16T03:17:48.470Z,-0.45
2023-02-16T03:20:35.389Z,-0.51
2023-02-16T03:23:24.664Z,-0.57
2023-02-16T03:26:11.721Z,-0.59
2023-02-16T03:29:00.759Z,-0.63
2023-02-16T03:31:38.506Z,-0.68
2023-02-16T03:34:07.078Z,-0.73
2023-02-16T03:36:39.974Z,-0.77
2023-02-16T03:39:08.092Z,-0.82
2023-02-16T03:41:44.115Z,-0.86
2023-02-16T03:44:11.044Z,-0.89
2023-02-16T03:46:38.273Z,-0.92
2023-02-16T03:49:05.161Z,-0.93
2023-02-16T03:51:32.151Z,-0.94
2023-02-16T03:53:59.233Z,-0.97
2023-02-16T03:56:26.182Z,-0.99
2023-02-16T03:58:53.460Z,-0.99
2023-02-16T04:01:20.460Z,-0.98
2023-02-16T04:03:47.724Z,-1.03
2023-02-16T04:06:14.801Z,-1.03
2023-02-16T04:08:41.776Z,-1.06
2023-02-16T04:11:27.736Z,-1.05
2023-02-16T04:13:54.692Z,-1.08
2023-02-16T04:16:21.732Z,-1.10
2023-02-16T04:18:48.790Z,-1.11
2023-02-16T04:21:15.762Z,-1.16
2023-02-16T04:23:43.098Z,-1.18
2023-02-16T04:26:10.009Z,-1.20
2023-02-16T04:28:36.898Z,-1.21
2023-02-16T04:31:04.321Z,-1.22
2023-02-16T04:33:31.414Z,-1.22
2023-02-16T04:35:58.453Z,-1.26
2023-02-16T04:38:26.205Z,-1.27
2023-02-16T04:40:53.198Z,-1.26
2023-02-16T04:43:20.086Z,-1.27
2023-02-16T04:45:47.195Z,-1.27
2023-02-16T04:48:14.077Z,-1.25
2023-02-16T04:50:41.084Z,-1.27
2023-02-16T04:53:08.020Z,-1.26
2023-02-16T04:55:35.198Z,-1.25
2023-02-16T04:58:02.166Z,-1.26
2023-02-16T05:00:29.270Z,-1.24
2023-02-16T05:02:57.178Z,-1.27
2023-02-16T05:05:24.220Z,-1.28
2023-02-16T05:07:51.260Z,-1.27
2023-02-16T05:10:18.349Z,-1.27
2023-02-16T05:13:03.866Z,-1.26
2023-02-16T05:15:30.851Z,-1.29
2023-02-16T05:17:57.976Z,-1.32
2023-02-16T05:20:44.989Z,-1.32
2023-02-16T05:23:11.990Z,-1.31
2023-02-16T05:25:38.966Z,-1.35
2023-02-16T05:28:06.066Z,-1.33
2023-02-16T05:30:33.263Z,-1.38
2023-02-16T05:33:00.237Z,-1.36
2023-02-16T05:35:28.486Z,-1.41
2023-02-16T05:37:55.560Z,-1.39
2023-02-16T05:40:22.796Z,-1.38
2023-02-16T05:42:54.344Z,-1.37
2023-02-16T05:45:21.651Z,-1.34
2023-02-16T05:47:48.692Z,-1.36
2023-02-16T05:50:15.878Z,-1.37
2023-02-16T05:52:42.962Z,-1.35
2023-02-16T05:55:10.599Z,-1.38
2023-02-16T05:57:37.737Z,-1.36
2023-02-16T06:00:05.988Z,-1.40
2023-02-16T06:02:33.243Z,-1.38
2023-02-16T06:05:00.419Z,-1.42
2023-02-16T06:07:27.347Z,-1.40
2023-02-16T06:09:54.293Z,-1.39
2023-02-16T06:12:21.409Z,-1.38
2023-02-16T06:14:48.430Z,-1.34
2023-02-16T06:17:15.433Z,-1.34
2023-02-16T06:19:42.522Z,-1.33
2023-02-16T06:22:09.391Z,-1.30
2023-02-16T06:24:37.185Z,-1.25
2023-02-16T06:27:04.666Z,-1.24
2023-02-16T06:29:32.007Z,-1.19
2023-02-16T06:31:59.319Z,-1.11
2023-02-16T06:34:26.378Z,-1.07
2023-02-16T06:36:53.409Z,-1.03
2023-02-16T06:39:20.442Z,-0.95
2023-02-16T06:41:47.409Z,-0.91
2023-02-16T06:44:16.056Z,-0.86
2023-02-16T06:46:45.481Z,-0.79
2023-02-16T06:49:19.910Z,-0.72
2023-02-16T06:51:48.638Z,-0.63
2023-02-16T06:54:16.658Z,-0.57
2023-02-16T06:56:43.807Z,-0.49
2023-02-16T06:59:12.389Z,-0.42
2023-02-16T07:01:39.435Z,-0.34
2023-02-16T07:04:06.313Z,-0.26
2023-02-16T07:06:33.267Z,-0.14
2023-02-16T07:09:00.492Z,-0.04
2023-02-16T07:11:27.676Z,0.03
2023-02-16T07:13:54.970Z,0.13
2023-02-16T07:16:22.112Z,0.26
2023-02-16T07:18:49.333Z,0.35
2023-02-16T07:21:16.636Z,0.43
2023-02-16T07:23:43.799Z,0.56
2023-02-16T07:26:11.016Z,0.67
2023-02-16T07:28:38.130Z,0.75
2023-02-16T07:31:11.025Z,0.86
2023-02-16T07:33:38.843Z,0.94
2023-02-16T07:36:08.991Z,1.07
2023-02-16T07:38:36.100Z,1.19
2023-02-16T07:41:05.797Z,1.28
2023-02-16T07:43:34.729Z,1.38
2023-02-16T07:46:02.300Z,1.49
2023-02-16T07:48:29.331Z,1.59
2023-02-16T07:50:56.219Z,1.72
2023-02-16T07:53:23.186Z,1.84
2023-02-16T07:55:50.085Z,1.96
2023-02-16T07:58:27.335Z,2.07
2023-02-16T08:01:15.904Z,2.21
2023-02-16T08:03:43.319Z,2.30
2023-02-16T08:06:10.555Z,2.40
2023-02-16T08:08:39.045Z,2.58
2023-02-16T08:11:18.858Z,2.73
2023-02-16T08:13:46.897Z,2.89
2023-02-16T08:16:20.916Z,3.04
2023-02-16T08:18:48.505Z,3.25
2023-02-16T08:21:19.713Z,3.41
2023-02-16T08:23:57.626Z,3.59
2023-02-16T08:26:28.849Z,3.78
2023-02-16T08:28:58.320Z,3.96
2023-02-16T08:31:31.962Z,4.15
2023-02-16T08:34:00.532Z,4.34
2023-02-16T08:36:34.550Z,4.54
2023-02-16T08:39:05.918Z,4.70
2023-02-16T08:41:35.953Z,4.86
2023-02-16T08:44:05.249Z,5.04
2023-02-16T08:46:34.128Z,5.24
2023-02-16T08:49:02.018Z,5.50
2023-02-16T08:51:34.772Z,5.74
2023-02-16T08:54:05.972Z,5.95
2023-02-16T08:56:34.364Z,6.24
2023-02-16T08:59:01.856Z,6.50
2023-02-16T09:01:29.024Z,6.76
2023-02-16T09:03:56.081Z,7.05
2023-02-16T09:06:23.422Z,7.27
2023-02-16T09:08:56.781Z,7.49
2023-02-16T09:11:24.682Z,7.72
2023-02-16T09:13:51.763Z,7.95
2023-02-16T09:16:22.456Z,8.13
2023-02-16T09:18:50.835Z,8.32
2023-02-16T09:21:25.498Z,8.51
2023-02-16T09:23:55.747Z,8.67
2023-02-16T09:26:24.787Z,8.83
2023-02-16T09:28:53.468Z,8.96
2023-02-16T09:31:33.696Z,9.13
2023-02-16T09:34:09.388Z,9.24
2023-02-16T09:36:38.132Z,9.39
2023-02-16T09:39:05.691Z,9.52
2023-02-16T09:41:57.712Z,9.69
2023-02-16T09:44:33.633Z,9.85
2023-02-16T09:47:06.467Z,9.99
2023-02-16T09:49:43.927Z,10.16
2023-02-16T09:52:40.174Z,10.34
2023-02-16T09:55:20.709Z,10.51
2023-02-16T09:58:19.543Z,10.69
2023-02-16T10:00:56.405Z,10.83
2023-02-16T10:03:28.785Z,10.98
2023-02-16T10:06:14.185Z,11.19
2023-02-16T10:08:50.177Z,11.32
2023-02-16T10:11:46.510Z,11.52
2023-02-16T10:14:31.617Z,11.68
2023-02-16T10:17:16.986Z,11.80
2023-02-16T10:20:06.265Z,12.00
2023-02-16T10:23:16.207Z,12.20
2023-02-16T10:26:44.288Z,12.32
2023-02-16T10:29:16.914Z,12.42
2023-02-16T10:31:56.482Z,12.51
2023-02-16T10:35:02.483Z,12.62
2023-02-16T10:37:56.774Z,12.81
2023-02-16T10:40:38.422Z,12.93
2023-02-16T10:43:45.152Z,13.03
2023-02-16T10:46:22.759Z,13.09
2023-02-16T10:48:54.511Z,13.19
2023-02-16T10:51:28.280Z,13.28
2023-02-16T10:54:17.544Z,13.41
2023-02-16T10:57:26.522Z,13.51
2023-02-16T10:59:55.011Z,13.59
2023-02-16T11:02:38.927Z,13.70
2023-02-16T11:05:36.429Z,13.78
2023-02-16T11:08:04.861Z,13.84
2023-02-16T11:10:39.832Z,13.92
2023-02-16T11:13:16.891Z,13.98
2023-02-16T11:15:43.972Z,14.02
2023-02-16T11:18:43.774Z,14.08
2023-02-16T11:21:12.246Z,14.07
2023-02-16T11:23:42.124Z,14.07
2023-02-16T11:26:11.823Z,14.04
2023-02-16T11:28:51.093Z,14.04
2023-02-16T11:31:39.885Z,14.10
2023-02-16T11:34:33.320Z,14.17
2023-02-16T11:37:18.129Z,14.19
2023-02-16T11:39:56.684Z,14.25
2023-02-16T11:42:40.702Z,14.36
2023-02-16T11:45:09.678Z,14.53
2023-02-16T11:47:40.422Z,14.65
2023-02-16T11:50:09.668Z,14.83
2023-02-16T11:52:37.012Z,15.02
2023-02-16T11:55:04.818Z,15.29
2023-02-16T11:57:36.979Z,15.59
2023-02-16T12:00:18.232Z,15.86
2023-02-16T12:03:12.181Z,16.09
2023-02-16T12:06:15.041Z,16.24
2023-02-16T12:09:00.002Z,16.30
2023-02-16T12:12:09.456Z,16.36
2023-02-16T12:15:04.357Z,16.41
2023-02-16T12:17:49.982Z,16.44
2023-02-16T12:20:39.841Z,16.49
2023-02-16T12:23:52.442Z,16.59
2023-02-16T12:26:52.229Z,16.64
2023-02-16T12:29:45.055Z,16.72
2023-02-16T12:32:24.434Z,16.89
2023-02-16T12:35:09.560Z,16.93
2023-02-16T12:38:20.608Z,16.89
2023-02-16T12:41:05.964Z,16.74
2023-02-16T12:43:42.060Z,16.61
2023-02-16T12:46:44.998Z,16.57
2023-02-16T12:49:36.347Z,16.53
2023-02-16T12:52:18.321Z,16.53
2023-02-16T12:55:17.256Z,16.60
2023-02-16T12:57:55.365Z,16.74
2023-02-16T13:00:28.850Z,17.04
2023-02-16T13:03:35.285Z,17.55
2023-02-16T13:06:37.620Z,18.20
2023-02-16T13:09:35.879Z,19.12
2023-02-16T13:12:36.495Z,19.84
2023-02-16T13:15:19.532Z,20.34
2023-02-16T13:18:02.226Z,20.69
2023-02-16T13:20:30.271Z,20.81
2023-02-16T13:23:43.777Z,20.99
2023-02-16T13:26:41.023Z,21.22
2023-02-16T13:29:26.911Z,21.51
2023-02-16T13:32:20.190Z,21.85
2023-02-16T13:35:00.196Z,22.27
2023-02-16T13:37:48.572Z,22.75
2023-02-16T13:41:03.093Z,23.29
2023-02-16T13:43:36.535Z,23.58
2023-02-16T13:46:10.540Z,23.74
2023-02-16T13:48:48.834Z,23.86
2023-02-16T13:51:20.672Z,24.00
2023-02-16T13:54:00.243Z,24.02
2023-02-16T13:56:30.734Z,23.89
2023-02-16T13:59:19.706Z,23.83
2023-02-16T14:01:48.991Z,23.66
2023-02-16T14:04:25.395Z,23.41
2023-02-16T14:07:18.325Z,22.98
2023-02-16T14:09:49.585Z,22.52
2023-02-16T14:12:37.939Z,22.09
2023-02-16T14:15:18.360Z,21.81
2023-02-16T14:17:47.178Z,21.71
2023-02-16T14:20:15.827Z,21.62
2023-02-16T14:22:45.898Z,21.52
2023-02-16T14:25:24.801Z,21.31
2023-02-16T14:28:29.750Z,20.94
2023-02-16T14:30:59.690Z,20.60
2023-02-16T14:34:01.041Z,20.30
2023-02-16T14:36:29.148Z,20.23
2023-02-16T14:38:58.412Z,20.23
2023-02-16T14:41:43.738Z,20.33
2023-02-16T14:44:38.862Z,20.21
2023-02-16T14:47:37.126Z,19.90
2023-02-16T14:50:51.324Z,19.59
2023-02-16T14:53:55.051Z,19.11
2023-02-16T14:56:34.196Z,18.71
2023-02-16T14:59:13.364Z,18.59
2023-02-16T15:01:43.744Z,18.47
2023-02-16T15:04:12.086Z,18.36
2023-02-16T15:06:44.463Z,18.20
2023-02-16T15:09:25.231Z,17.95
2023-02-16T15:12:22.101Z,17.64
2023-02-16T15:14:59.669Z,17.31
2023-02-16T15:17:40.163Z,17.01
2023-02-16T15:20:31.288Z,16.63
2023-02-16T15:23:07.439Z,16.27
2023-02-16T15:25:40.644Z,15.97
2023-02-16T15:28:10.519Z,15.71
2023-02-16T15:30:41.200Z,15.42
2023-02-16T15:33:22.929Z,15.15
2023-02-16T15:36:14.265Z,14.84
2023-02-16T15:38:57.556Z,14.62
2023-02-16T15:41:35.095Z,14.40
2023-02-16T15:44:05.776Z,14.19
2023-02-16T15:46:39.631Z,13.99
2023-02-16T15:49:27.077Z,13.80
2023-02-16T15:51:57.086Z,13.63
2023-02-16T15:54:35.529Z,13.48
2023-02-16T15:57:15.596Z,13.35
2023-02-16T15:59:54.285Z,13.19
2023-02-16T16:02:37.611Z,13.05
2023-02-16T16:05:20.742Z,12.84
2023-02-16T16:07:48.393Z,12.74
2023-02-16T16:10:41.588Z,12.57
2023-02-16T16:13:29.009Z,12.37
2023-02-16T16:16:01.910Z,12.23
2023-02-16T16:18:39.805Z,12.07
2023-02-16T16:21:33.949Z,11.90
2023-02-16T16:24:07.877Z,11.69
2023-02-16T16:26:58.234Z,11.51
2023-02-16T16:29:41.441Z,11.37
2023-02-16T16:32:23.106Z,11.20
2023-02-16T16:34:51.128Z,11.03
2023-02-16T16:37:34.593Z,10.92
2023-02-16T16:40:19.882Z,10.79
2023-02-16T16:43:02.338Z,10.67
2023-02-16T16:45:45.799Z,10.55
2023-02-16T16:48:34.588Z,10.42
2023-02-16T16:51:43.414Z,10.31
2023-02-16T16:54:22.305Z,10.17
2023-02-16T16:56:49.197Z,10.09
2023-02-16T16:59:17.038Z,10.02
2023-02-16T17:01:46.080Z,9.97
2023-02-16T17:04:13.231Z,9.92
2023-02-16T17:06:40.258Z,9.79
2023-02-16T17:09:07.358Z,9.72
2023-02-16T17:11:37.146Z,9.63
2023-02-16T17:14:15.871Z,9.53
2023-02-16T17:16:47.291Z,9.39
2023-02-16T17:19:17.722Z,9.29
2023-02-16T17:21:46.296Z,9.19
2023-02-16T17:24:14.260Z,9.08
2023-02-16T17:26:43.318Z,8.98
2023-02-16T17:29:10.440Z,8.90
2023-02-16T17:31:37.585Z,8.79
2023-02-16T17:34:04.647Z,8.73
2023-02-16T17:36:31.554Z,8.65
2023-02-16T17:38:58.537Z,8.56
2023-02-16T17:41:28.588Z,8.46
2023-02-16T17:43:55.971Z,8.37
2023-02-16T17:46:24.491Z,8.29
2023-02-16T17:48:55.269Z,8.15
2023-02-16T17:51:24.838Z,8.02
2023-02-16T17:53:52.274Z,7.90
2023-02-16T17:56:22.515Z,7.79
2023-02-16T17:58:50.570Z,7.68
2023-02-16T18:01:19.214Z,7.59
2023-02-16T18:03:46.317Z,7.53
2023-02-16T18:06:24.378Z,7.43
2023-02-16T18:08:52.074Z,7.36
2023-02-16T18:11:19.312Z,7.35
2023-02-16T18:13:46.258Z,7.35
2023-02-16T18:16:21.672Z,7.41
2023-02-16T18:18:48.901Z,7.47
2023-02-16T18:21:15.932Z,7.47
2023-02-16T18:23:42.912Z,7.50
2023-02-16T18:26:14.709Z,7.48
2023-02-16T18:28:41.964Z,7.50
2023-02-16T18:31:09.199Z,7.50
2023-02-16T18:33:36.392Z,7.48
2023-02-16T18:36:04.540Z,7.44
2023-02-16T18:38:32.098Z,7.44
2023-02-16T18:40:59.073Z,7.42
2023-02-16T18:43:26.355Z,7.41
2023-02-16T18:45:53.505Z,7.36
2023-02-16T18:48:21.902Z,7.35
2023-02-16T18:50:48.980Z,7.28
2023-02-16T18:53:16.304Z,7.22
2023-02-16T18:55:43.853Z,7.17
2023-02-16T18:58:13.572Z,7.14
2023-02-16T19:00:41.240Z,7.08
2023-02-16T19:03:08.734Z,7.04
2023-02-16T19:05:36.151Z,7.01
2023-02-16T19:08:03.422Z,6.95
2023-02-16T19:10:30.797Z,6.91
2023-02-16T19:12:57.979Z,6.86
2023-02-16T19:15:25.224Z,6.84
2023-02-16T19:17:54.003Z,6.75
2023-02-16T19:20:21.674Z,6.75
2023-02-16T19:22:50.591Z,6.70
2023-02-16T19:25:18.060Z,6.65
2023-02-16T19:27:45.234Z,6.62
2023-02-16T19:30:12.829Z,6.60
2023-02-16T19:32:41.086Z,6.60
2023-02-16T19:35:10.037Z,6.57
2023-02-16T19:37:37.224Z,6.55
2023-02-16T19:40:06.914Z,6.52
2023-02-16T19:42:34.082Z,6.54
2023-02-16T19:45:01.129Z,6.54
2023-02-16T19:47:28.173Z,6.61
2023-02-16T19:49:55.124Z,6.63
2023-02-16T19:52:22.183Z,6.67
2023-02-16T19:54:49.442Z,6.65
2023-02-16T19:57:16.555Z,6.66
2023-02-16T19:59:43.591Z,6.69
2023-02-16T20:02:15.538Z,6.67
2023-02-16T20:04:44.483Z,6.66
2023-02-16T20:07:11.505Z,6.65
2023-02-16T20:09:39.172Z,6.64
2023-02-16T20:12:06.721Z,6.63
2023-02-16T20:14:33.907Z,6.61
2023-02-16T20:17:00.929Z,6.54
2023-02-16T20:19:28.185Z,6.55
2023-02-16T20:21:55.607Z,6.54
2023-02-16T20:24:22.996Z,6.56
2023-02-16T20:26:52.046Z,6.53
2023-02-16T20:29:20.843Z,6.52
2023-02-16T20:31:55.287Z,6.51
2023-02-16T20:34:26.019Z,6.52
2023-02-16T20:36:53.754Z,6.53
2023-02-16T20:39:20.823Z,6.57
2023-02-16T20:41:47.750Z,6.60
2023-02-16T20:44:14.797Z,6.61
2023-02-16T20:46:42.377Z,6.64
2023-02-16T20:49:09.617Z,6.67
2023-02-16T20:51:37.824Z,6.71
2023-02-16T20:54:05.364Z,6.74
2023-02-16T20:56:32.350Z,6.73
2023-02-16T20:58:59.582Z,6.78
2023-02-16T21:01:38.026Z,6.79
2023-02-16T21:04:07.866Z,6.84
2023-02-16T21:06:36.590Z,6.82
2023-02-16T21:09:05.757Z,6.84
2023-02-16T21:11:33.273Z,6.89
2023-02-16T21:14:02.079Z,6.88
2023-02-16T21:16:29.815Z,6.93
2023-02-16T21:18:57.288Z,6.98
2023-02-16T21:21:24.781Z,7.00
2023-02-16T21:23:53.964Z,7.02
2023-02-16T21:26:24.486Z,7.03
2023-02-16T21:28:51.969Z,7.05
2023-02-16T21:31:25.508Z,7.01
2023-02-16T21:33:53.747Z,7.01
2023-02-16T21:36:26.036Z,6.98
2023-02-16T21:38:53.897Z,7.01
2023-02-16T21:41:29.087Z,7.01
2023-02-16T21:44:05.228Z,7.00
2023-02-16T21:46:39.246Z,7.02
2023-02-16T21:49:11.145Z,7.02
2023-02-16T21:51:40.629Z,7.04
2023-02-16T21:54:14.741Z,7.08
2023-02-16T21:56:50.976Z,7.08
2023-02-16T21:59:20.002Z,7.07
2023-02-16T22:01:51.376Z,7.09
2023-02-16T22:04:22.045Z,7.13
2023-02-16T22:06:51.104Z,7.15
2023-02-16T22:09:22.442Z,7.16
2023-02-16T22:11:50.898Z,7.14
2023-02-16T22:14:18.653Z,7.11
2023-02-16T22:16:47.531Z,7.08
2023-02-16T22:19:17.565Z,7.02
2023-02-16T22:21:46.884Z,7.02
2023-02-16T22:24:16.999Z,6.95
2023-02-16T22:26:45.316Z,6.89
2023-02-16T22:29:13.022Z,6.77
2023-02-16T22:31:48.733Z,6.66
2023-02-16T22:34:19.946Z,6.57
2023-02-16T22:36:47.360Z,6.54
2023-02-16T22:39:18.938Z,6.47
2023-02-16T22:41:46.193Z,6.41
2023-02-16T22:44:13.136Z,6.38
2023-02-16T22:46:40.096Z,6.37
2023-02-16T22:49:07.093Z,6.37
2023-02-16T22:51:34.354Z,6.39
2023-02-16T22:54:02.367Z,6.45
2023-02-16T22:56:30.811Z,6.47
2023-02-16T22:58:59.619Z,6.42
2023-02-16T23:01:29.917Z,6.47
2023-02-16T23:03:59.611Z,6.52
2023-02-16T23:06:33.756Z,6.58
2023-02-16T23:09:07.679Z,6.64
2023-02-16T23:11:36.457Z,6.69
2023-02-16T23:14:04.523Z,6.81
2023-02-16T23:16:31.981Z,6.87
2023-02-16T23:18:59.981Z,6.95
2023-02-16T23:21:30.343Z,7.08
2023-02-16T23:23:58.812Z,7.17
2023-02-16T23:26:29.109Z,7.25
2023-02-16T23:28:59.645Z,7.29
2023-02-16T23:31:26.989Z,7.32
2023-02-16T23:33:56.644Z,7.37
2023-02-16T23:36:23.733Z,7.43
2023-02-16T23:38:50.918Z,7.49
2023-02-16T23:41:18.164Z,7.55
2023-02-16T23:43:45.290Z,7.59
2023-02-16T23:46:12.957Z,7.63
2023-02-16T23:48:40.094Z,7.65
2023-02-16T23:51:07.121Z,7.71
2023-02-16T23:53:34.542Z,7.79
2023-02-16T23:56:06.009Z,7.79
2023-02-16T23:58:41.329Z,7.84
